Time;durP1;ratioP1;P1;durP2;ratioP2;P2;SDS_P1;SDS_P2;PMS_P1;PMS_P2;Temp;Humidity;BMP_temperature;BMP_pressure;BME280_temperature;BME280_humidity;BME280_pressure;Samples;Min_cycle;Max_cycle;Signal;HPM_P1;HPM_P2
2022/04/08 00:01:27;;;;;;;15.38;4.30;;;;;;;6.06;80.64;99677.31;5073319;28;20028;-71
2022/04/08 00:03:53;;;;;;;13.07;4.63;;;;;;;6.06;80.20;99671.16;5070616;28;20020;-70
2022/04/08 00:06:20;;;;;;;16.35;4.20;;;;;;;6.03;79.84;99692.47;5071809;28;20063;-70
2022/04/08 00:08:46;;;;;;;12.57;4.03;;;;;;;6.13;80.17;99699.72;5070594;28;20787;-71
2022/04/08 00:11:12;;;;;;;15.40;4.03;;;;;;;6.05;79.56;99691.44;5070927;28;20024;-70
2022/04/08 00:13:40;;;;;;;17.40;4.85;;;;;;;6.15;78.78;99710.19;5069789;28;20027;-71
2022/04/08 00:16:07;;;;;;;14.20;5.15;;;;;;;6.16;78.13;99711.03;5081828;28;20506;-71
2022/04/08 00:18:33;;;;;;;17.35;4.72;;;;;;;6.16;78.74;99713.69;5082164;28;20024;-71
2022/04/08 00:20:59;;;;;;;22.42;4.60;;;;;;;6.12;78.62;99711.22;5083607;28;20367;-71
2022/04/08 00:23:25;;;;;;;14.90;4.57;;;;;;;6.15;77.92;99723.41;5052733;28;20035;-71
2022/04/08 00:25:50;;;;;;;17.50;4.55;;;;;;;6.18;78.26;99730.25;5069761;28;20028;-70
2022/04/08 00:28:19;;;;;;;18.98;4.60;;;;;;;6.20;79.24;99729.22;5080751;28;20062;-70
2022/04/08 00:30:48;;;;;;;15.20;4.43;;;;;;;6.12;79.54;99729.72;5070816;28;20024;-71
2022/04/08 00:33:14;;;;;;;18.67;5.95;;;;;;;6.11;78.80;99730.63;5077550;28;20028;-70
2022/04/08 00:35:39;;;;;;;19.17;5.10;;;;;;;6.19;78.97;99726.69;5071641;28;20036;-70
2022/04/08 00:38:06;;;;;;;22.17;5.00;;;;;;;6.14;78.50;99734.88;5078859;28;20404;-70
2022/04/08 00:40:33;;;;;;;21.73;5.93;;;;;;;6.09;79.04;99734.34;5077582;28;20040;-70
2022/04/08 00:42:59;;;;;;;19.50;5.47;;;;;;;5.97;78.96;99730.66;5070675;28;20024;-70
2022/04/08 00:45:29;;;;;;;16.10;5.15;;;;;;;6.05;78.13;99749.50;5076162;28;20032;-70
2022/04/08 00:47:55;;;;;;;18.73;5.00;;;;;;;6.01;78.42;99749.78;5076674;28;20029;-70
2022/04/08 00:50:22;;;;;;;22.00;5.07;;;;;;;6.09;78.31;99763.38;5079836;28;20039;-71
2022/04/08 00:52:48;;;;;;;15.80;4.38;;;;;;;6.14;78.45;99761.28;5098513;28;20058;-71
2022/04/08 00:55:13;;;;;;;15.73;4.57;;;;;;;6.13;78.39;99768.34;5052465;28;20029;-71
2022/04/08 00:57:41;;;;;;;19.85;4.97;;;;;;;6.11;78.44;99766.75;5072398;28;20055;-70
2022/04/08 01:00:09;;;;;;;19.70;4.72;;;;;;;6.08;77.97;99773.06;5063377;28;20032;-71
2022/04/08 01:02:37;;;;;;;20.20;4.78;;;;;;;6.09;77.93;99769.50;5069182;28;20021;-71
2022/04/08 01:05:06;;;;;;;20.25;5.45;;;;;;;6.04;78.58;99754.88;5072691;28;20103;-71
2022/04/08 01:07:35;;;;;;;12.63;4.85;;;;;;;6.08;77.52;99773.06;5069021;28;20028;-71
2022/04/08 01:10:00;;;;;;;14.88;4.45;;;;;;;6.05;77.53;99775.88;5070425;28;20028;-71
2022/04/08 01:12:28;;;;;;;18.02;4.13;;;;;;;5.97;77.39;99774.66;5068733;28;20038;-70
2022/04/08 01:14:58;;;;;;;14.32;4.80;;;;;;;6.01;77.33;99778.81;5077628;28;20457;-71
2022/04/08 01:17:24;;;;;;;19.23;4.90;;;;;;;6.00;77.47;99791.19;5074214;28;20024;-70
2022/04/08 01:19:50;;;;;;;16.88;4.97;;;;;;;6.00;77.78;99799.09;5051808;28;20017;-71
2022/04/08 01:22:20;;;;;;;21.38;5.40;;;;;;;6.02;78.01;99796.34;5076206;28;20029;-71
2022/04/08 01:24:50;;;;;;;16.95;4.82;;;;;;;5.99;76.91;99800.03;5070171;28;20031;-71
2022/04/08 01:27:20;;;;;;;16.67;4.70;;;;;;;5.93;77.63;99784.56;5069294;28;20559;-71
2022/04/08 01:29:47;;;;;;;18.20;4.55;;;;;;;5.97;78.17;99795.78;5070482;28;20094;-71
2022/04/08 01:32:16;;;;;;;16.08;4.60;;;;;;;6.00;77.93;99799.09;5086196;28;20458;-71
2022/04/08 01:34:43;;;;;;;19.20;4.85;;;;;;;5.87;77.70;99801.59;5078864;28;20029;-71
2022/04/08 01:37:09;;;;;;;19.65;4.82;;;;;;;5.83;78.78;99805.34;5071392;28;20033;-71
2022/04/08 01:39:35;;;;;;;20.42;5.22;;;;;;;5.79;78.68;99802.97;5086938;28;20035;-71
2022/04/08 01:42:00;;;;;;;18.73;4.97;;;;;;;5.80;78.58;99807.34;5084372;28;20380;-71
2022/04/08 01:44:26;;;;;;;15.55;5.07;;;;;;;5.88;79.33;99815.63;5071361;28;20040;-70
2022/04/08 01:46:54;;;;;;;16.50;4.90;;;;;;;5.83;78.36;99815.06;5071420;28;20119;-71
2022/04/08 01:49:20;;;;;;;16.35;5.07;;;;;;;5.84;78.99;99811.47;5089963;28;20024;-71
2022/04/08 01:51:48;;;;;;;20.50;5.20;;;;;;;5.82;78.65;99806.28;5077715;28;20433;-71
2022/04/08 01:54:18;;;;;;;17.20;4.75;;;;;;;5.81;79.69;99816.94;5074668;28;20028;-71
2022/04/08 01:56:44;;;;;;;;;;;;;;;5.94;78.35;99815.28;5073199;28;20111;-71
2022/04/08 01:59:09;;;;;;;16.48;4.43;;;;;;;5.85;79.05;99821.09;5082346;28;20003;-71
2022/04/08 02:01:35;;;;;;;22.70;4.95;;;;;;;5.91;78.70;99815.44;5076050;28;20028;-71
2022/04/08 02:04:00;;;;;;;24.45;5.45;;;;;;;5.82;79.53;99819.47;5072037;28;20029;-70
2022/04/08 02:06:26;;;;;;;15.80;4.30;;;;;;;5.81;78.81;99828.34;5069430;28;20403;-71
2022/04/08 02:08:53;;;;;;;15.65;5.20;;;;;;;5.78;79.02;99819.75;5073717;28;20419;-71
2022/04/08 02:11:20;;;;;;;18.75;4.95;;;;;;;5.78;78.76;99825.88;5087861;28;20040;-71
2022/04/08 02:13:46;;;;;;;22.58;5.03;;;;;;;5.70;79.66;99833.41;5072476;28;20028;-71
2022/04/08 02:16:11;;;;;;;16.00;5.20;;;;;;;5.68;80.04;99822.94;5073580;28;20488;-71
2022/04/08 02:18:37;;;;;;;21.38;5.60;;;;;;;5.72;79.66;99835.97;5075365;28;20039;-71
2022/04/08 02:21:03;;;;;;;17.25;4.70;;;;;;;5.69;79.06;99839.63;5071519;28;20545;-71
2022/04/08 02:23:29;;;;;;;12.57;4.60;;;;;;;5.68;78.83;99832.66;5073281;28;20491;-71
2022/04/08 02:25:59;;;;;;;19.80;5.35;;;;;;;5.65;79.20;99835.47;5076839;28;20055;-71
2022/04/08 02:28:24;;;;;;;21.73;4.47;;;;;;;5.65;79.55;99838.13;5056713;28;20399;-71
2022/04/08 02:30:52;;;;;;;12.85;4.95;;;;;;;5.57;78.96;99843.84;5084070;28;20035;-71
2022/04/08 02:33:19;;;;;;;15.18;4.97;;;;;;;5.49;79.48;99839.94;5080926;28;20032;-71
2022/04/08 02:35:45;;;;;;;14.05;4.53;;;;;;;5.49;80.08;99853.13;5082386;28;20032;-71
2022/04/08 02:38:12;;;;;;;16.67;4.85;;;;;;;5.47;79.79;99850.56;5088980;28;20028;-71
2022/04/08 02:40:38;;;;;;;15.48;4.60;;;;;;;5.42;80.03;99835.03;5072715;28;20185;-71
2022/04/08 02:43:06;;;;;;;15.13;4.43;;;;;;;5.44;79.66;99848.09;5091163;28;20523;-70
2022/04/08 02:45:34;;;;;;;11.88;4.57;;;;;;;5.40;80.68;99849.25;5080562;28;20028;-71
2022/04/08 02:47:59;;;;;;;20.00;4.88;;;;;;;5.41;79.54;99856.19;5083310;28;20017;-71
2022/04/08 02:50:29;;;;;;;18.55;5.30;;;;;;;5.36;80.80;99853.84;5079668;28;20463;-71
2022/04/08 02:52:57;;;;;;;13.32;4.63;;;;;;;5.36;79.74;99853.00;5075978;28;20028;-71
2022/04/08 02:55:23;;;;;;;14.30;4.30;;;;;;;5.32;79.81;99860.22;5079592;28;20036;-71
2022/04/08 02:57:50;;;;;;;20.80;5.20;;;;;;;5.28;80.65;99857.84;5072059;28;20035;-71
2022/04/08 03:00:17;;;;;;;14.55;4.70;;;;;;;5.27;80.31;99859.66;5070922;28;20131;-71
2022/04/08 03:02:49;;;;;;;12.15;4.70;;;;;;;5.20;79.92;99848.59;5074793;28;20029;-71
2022/04/08 03:05:18;;;;;;;13.85;5.38;;;;;;;5.12;80.23;99852.63;5078141;28;20536;-71
2022/04/08 03:07:44;;;;;;;13.57;4.47;;;;;;;5.15;80.28;99849.81;5078436;28;20497;-71
2022/04/08 03:10:11;;;;;;;19.38;4.80;;;;;;;5.08;80.35;99851.06;5071914;28;20024;-71
2022/04/08 03:12:36;;;;;;;14.70;5.55;;;;;;;5.08;80.46;99854.56;5072503;28;20490;-71
2022/04/08 03:15:03;;;;;;;19.10;5.35;;;;;;;5.08;80.14;99854.56;5072547;28;20051;-71
2022/04/08 03:17:28;;;;;;;12.77;4.55;;;;;;;5.08;80.45;99853.72;5072472;28;20384;-71
2022/04/08 03:19:56;;;;;;;13.30;4.10;;;;;;;5.04;79.93;99860.09;5072461;28;20051;-71
2022/04/08 03:22:22;;;;;;;13.15;4.07;;;;;;;4.96;80.94;99858.72;5070857;28;20127;-71
2022/04/08 03:24:51;;;;;;;15.50;4.90;;;;;;;4.91;81.57;99863.44;5086695;28;20111;-71
2022/04/08 03:27:17;;;;;;;15.77;4.68;;;;;;;4.84;81.26;99877.84;5072980;28;20028;-71
2022/04/08 03:29:43;;;;;;;14.55;4.93;;;;;;;4.81;81.79;99875.38;5079875;28;20055;-71
2022/04/08 03:32:09;;;;;;;14.80;5.45;;;;;;;4.82;81.54;99874.44;5073275;28;20523;-71
2022/04/08 03:34:35;;;;;;;11.85;4.40;;;;;;;4.79;81.53;99871.97;5071415;28;20032;-71
2022/04/08 03:37:00;;;;;;;20.05;5.03;;;;;;;4.80;81.22;99873.69;5070276;28;20039;-70
2022/04/08 03:39:26;;;;;;;14.38;4.70;;;;;;;4.75;82.34;99879.22;5085930;28;20020;-71
2022/04/08 03:41:53;;;;;;;19.10;4.93;;;;;;;4.69;82.06;99881.34;5091452;28;20509;-72
2022/04/08 03:44:19;;;;;;;14.35;4.55;;;;;;;4.70;81.96;99878.59;5091570;28;20525;-71
2022/04/08 03:46:48;;;;;;;11.32;4.50;;;;;;;4.60;81.97;99874.78;5088758;28;20024;-71
2022/04/08 03:49:14;;;;;;;12.35;4.82;;;;;;;4.61;82.72;99881.75;5073568;28;20044;-71
2022/04/08 03:51:43;;;;;;;13.98;4.68;;;;;;;4.61;82.26;99886.16;5071801;28;20028;-71
2022/04/08 03:54:12;;;;;;;15.95;6.18;;;;;;;4.68;81.86;99885.75;5091020;28;20020;-71
2022/04/08 03:56:38;;;;;;;15.93;4.50;;;;;;;4.54;82.40;99883.00;5072445;28;20037;-71
2022/04/08 03:59:04;;;;;;;10.80;3.83;;;;;;;4.56;81.97;99899.59;5084857;28;20051;-71
2022/04/08 04:01:29;;;;;;;11.52;3.78;;;;;;;4.57;82.54;99900.44;5071807;28;20032;-71
2022/04/08 04:03:59;;;;;;;13.27;4.70;;;;;;;4.57;82.02;99903.06;5082415;28;20024;-71
2022/04/08 04:06:25;;;;;;;10.55;4.43;;;;;;;4.47;82.37;99900.94;5090533;28;20471;-71
2022/04/08 04:08:51;;;;;;;14.27;4.55;;;;;;;4.47;82.02;99887.75;5074301;28;20055;-71
2022/04/08 04:11:19;;;;;;;17.52;4.55;;;;;;;4.39;82.36;99891.72;5069581;28;20028;-71
2022/04/08 04:13:46;;;;;;;13.18;4.78;;;;;;;4.43;82.25;99891.47;5077796;28;20024;-71
2022/04/08 04:16:12;;;;;;;10.95;4.38;;;;;;;4.41;82.31;99889.84;5079321;28;20405;-71
2022/04/08 04:18:40;;;;;;;17.15;4.75;;;;;;;4.41;82.88;99890.72;5077217;28;20479;-71
2022/04/08 04:21:06;;;;;;;10.95;4.78;;;;;;;4.41;82.25;99889.84;5070548;28;20032;-71
2022/04/08 04:23:34;;;;;;;9.27;4.97;;;;;;;4.28;82.85;99879.13;5090413;28;20066;-71
2022/04/08 04:26:03;;;;;;;13.85;4.78;;;;;;;4.36;82.38;99884.00;5075999;28;20039;-71
2022/04/08 04:28:32;;;;;;;13.68;5.25;;;;;;;4.36;82.08;99879.59;5072909;28;20013;-71
2022/04/08 04:31:03;;;;;;;10.53;4.73;;;;;;;4.30;82.61;99885.19;5078659;28;20046;-71
2022/04/08 04:33:31;;;;;;;14.93;5.30;;;;;;;4.33;82.74;99885.00;5074117;28;20106;-71
2022/04/08 04:35:57;;;;;;;17.77;5.95;;;;;;;4.27;83.13;99887.97;5068957;28;20483;-71
2022/04/08 04:38:23;;;;;;;11.77;5.88;;;;;;;4.24;83.10;99888.13;5053026;28;20028;-71
2022/04/08 04:40:49;;;;;;;15.32;5.97;;;;;;;4.21;83.54;99891.78;5070747;28;20467;-71
2022/04/08 04:43:14;;;;;;;15.10;5.70;;;;;;;4.19;83.33;99898.88;5071504;28;20029;-71
2022/04/08 04:45:40;;;;;;;11.98;6.00;;;;;;;4.15;83.17;99886.81;5070897;28;20058;-70
2022/04/08 04:48:06;;;;;;;11.90;6.18;;;;;;;4.19;82.79;99893.63;5072777;28;20039;-71
2022/04/08 04:50:32;;;;;;;13.52;6.65;;;;;;;4.16;83.33;99891.16;5071322;28;20048;-71
2022/04/08 04:52:58;;;;;;;10.88;6.45;;;;;;;4.19;83.95;99892.78;5070468;28;20031;-70
2022/04/08 04:55:26;;;;;;;11.10;6.88;;;;;;;4.10;84.20;99899.38;5085014;28;20033;-71
2022/04/08 04:57:53;;;;;;;14.10;7.55;;;;;;;4.15;83.06;99894.72;5069401;28;20060;-70
2022/04/08 05:00:20;;;;;;;14.93;8.32;;;;;;;4.14;83.92;99897.41;5063736;28;20106;-70
2022/04/08 05:02:46;;;;;;;17.13;8.88;;;;;;;4.13;84.45;99893.09;5071596;28;20047;-70
2022/04/08 05:05:14;;;;;;;14.82;8.35;;;;;;;4.13;83.95;99893.09;5103870;28;20031;-71
2022/04/08 05:07:42;;;;;;;18.92;9.50;;;;;;;4.08;84.53;99885.44;5089206;28;20039;-70
2022/04/08 05:10:11;;;;;;;16.83;8.13;;;;;;;4.10;84.38;99876.53;5090942;28;20019;-70
2022/04/08 05:12:37;;;;;;;15.95;8.82;;;;;;;4.13;84.25;99888.69;5087981;28;20032;-71
2022/04/08 05:15:06;;;;;;;14.80;8.40;;;;;;;4.10;84.36;99880.94;5075308;28;20055;-70
2022/04/08 05:17:34;;;;;;;25.05;9.45;;;;;;;4.15;84.45;99884.19;5084138;28;20077;-71
2022/04/08 05:20:01;;;;;;;15.50;8.82;;;;;;;4.16;84.50;99877.16;5090812;28;20016;-71
2022/04/08 05:22:31;;;;;;;17.08;9.35;;;;;;;4.16;84.18;99880.63;5083571;28;20487;-71
2022/04/08 05:24:58;;;;;;;;;;;;;;;4.31;83.43;99892.97;5083731;28;20036;-70
2022/04/08 05:27:23;;;;;;;14.50;9.35;;;;;;;4.21;84.05;99888.28;5081902;28;19912;-71
2022/04/08 05:29:49;;;;;;;17.25;10.02;;;;;;;4.25;84.83;99888.03;5090907;28;20053;-71
2022/04/08 05:32:17;;;;;;;16.60;10.38;;;;;;;4.20;84.62;99889.19;5084199;28;20025;-70
2022/04/08 05:34:43;;;;;;;14.85;10.77;;;;;;;4.24;84.54;99882.88;5088062;28;20390;-71
2022/04/08 05:37:12;;;;;;;17.38;10.73;;;;;;;4.27;85.39;99878.28;5068572;28;20025;-70
2022/04/08 05:39:37;;;;;;;21.27;11.70;;;;;;;4.35;84.95;99882.28;5072243;28;20503;-71
2022/04/08 05:42:05;;;;;;;18.65;11.88;;;;;;;4.38;84.89;99868.97;5068533;28;20040;-71
2022/04/08 05:44:31;;;;;;;18.60;11.70;;;;;;;4.38;84.91;99871.59;5081460;28;20426;-71
2022/04/08 05:46:58;;;;;;;16.20;11.50;;;;;;;4.38;85.25;99879.47;5082615;28;20031;-70
2022/04/08 05:49:26;;;;;;;21.15;12.02;;;;;;;4.40;84.86;99872.38;5068589;28;20089;-70
2022/04/08 05:51:53;;;;;;;23.63;11.65;;;;;;;4.43;84.56;99867.78;5069551;28;20029;-70
2022/04/08 05:54:19;;;;;;;16.15;11.20;;;;;;;4.46;84.71;99854.44;5052587;28;20039;-71
2022/04/08 05:56:45;;;;;;;21.40;11.45;;;;;;;4.48;84.25;99854.38;5067247;28;20029;-70
2022/04/08 05:59:13;;;;;;;21.45;12.15;;;;;;;4.47;84.73;99855.28;5070022;28;20068;-70
2022/04/08 06:01:39;;;;;;;17.83;11.60;;;;;;;4.29;84.69;99829.06;5068040;28;20111;-70
2022/04/08 06:04:05;;;;;;;18.92;11.48;;;;;;;4.39;84.80;99842.56;5068224;28;20056;-71
2022/04/08 06:06:33;;;;;;;17.27;11.90;;;;;;;4.46;85.08;99850.97;5073140;28;20458;-70
2022/04/08 06:08:59;;;;;;;18.85;12.32;;;;;;;4.52;85.06;99854.13;5069791;28;20070;-70
2022/04/08 06:11:29;;;;;;;15.77;9.95;;;;;;;4.62;83.92;99861.50;5068864;28;20044;-71
2022/04/08 06:13:56;;;;;;;16.20;10.77;;;;;;;4.61;84.17;99859.81;5073767;28;20036;-71
2022/04/08 06:16:24;;;;;;;19.02;10.20;;;;;;;4.68;83.91;99855.94;5051666;28;20360;-72
2022/04/08 06:18:49;;;;;;;13.50;9.82;;;;;;;4.68;84.33;99855.94;5047993;28;20025;-72
2022/04/08 06:21:15;;;;;;;13.32;9.32;;;;;;;4.63;84.33;99843.00;5068315;28;20035;-72
2022/04/08 06:23:41;;;;;;;20.25;10.27;;;;;;;4.76;84.02;99859.84;5068385;28;20210;-71
2022/04/08 06:26:08;;;;;;;22.98;10.77;;;;;;;4.83;83.81;99865.63;5072951;28;20428;-72
2022/04/08 06:28:36;;;;;;;15.23;9.23;;;;;;;4.84;82.99;99867.31;5068705;28;20105;-72
2022/04/08 06:31:03;;;;;;;11.15;7.95;;;;;;;4.82;82.57;99845.47;5082959;28;20035;-71
2022/04/08 06:33:29;;;;;;;18.33;9.23;;;;;;;4.90;83.24;99872.25;5068156;28;20391;-72
2022/04/08 06:35:54;;;;;;;13.52;8.63;;;;;;;5.00;82.80;99864.69;5091445;28;20028;-72
2022/04/08 06:38:20;;;;;;;14.80;8.68;;;;;;;5.04;82.76;99860.09;5066551;28;20036;-71
2022/04/08 06:40:46;;;;;;;13.80;8.57;;;;;;;5.17;81.94;99855.81;5069082;28;20111;-72
2022/04/08 06:43:12;;;;;;;20.70;9.18;;;;;;;5.32;81.42;99848.81;5072172;28;20445;-72
2022/04/08 06:45:39;;;;;;;16.92;8.98;;;;;;;5.48;81.71;99844.38;5077826;28;20036;-72
2022/04/08 06:48:05;;;;;;;21.52;8.98;;;;;;;5.59;81.46;99849.00;5071306;28;20028;-72
2022/04/08 06:50:31;;;;;;;13.88;8.50;;;;;;;5.67;79.82;99847.63;5072707;28;20032;-72
2022/04/08 06:53:00;;;;;;;12.57;7.90;;;;;;;5.66;79.87;99845.94;5072209;28;20016;-71
2022/04/08 06:55:28;;;;;;;13.38;8.27;;;;;;;5.67;79.42;99846.78;5072633;28;21575;-71
2022/04/08 06:57:54;;;;;;;12.23;8.27;;;;;;;5.54;80.11;99825.56;5076542;28;20072;-71
2022/04/08 07:00:21;;;;;;;11.70;7.30;;;;;;;5.61;79.83;99844.50;5055037;28;20119;-71
2022/04/08 07:02:46;;;;;;;13.40;8.18;;;;;;;5.66;79.71;99838.00;5075655;28;20438;-71
2022/04/08 07:05:12;;;;;;;14.27;8.32;;;;;;;5.67;78.98;99841.50;5072460;28;20063;-71
2022/04/08 07:07:38;;;;;;;10.32;6.95;;;;;;;5.65;79.86;99828.41;5072174;28;20472;-71
2022/04/08 07:10:08;;;;;;;14.98;8.02;;;;;;;5.65;79.09;99836.31;5068533;28;20433;-71
2022/04/08 07:12:34;;;;;;;15.18;6.90;;;;;;;5.65;79.31;99836.31;5079386;28;20365;-71
2022/04/08 07:14:59;;;;;;;15.45;7.88;;;;;;;5.74;78.04;99842.00;5070016;28;20028;-71
2022/04/08 07:17:33;;;;;;;8.85;6.63;;;;;;;5.74;79.21;99839.38;5087002;28;20024;-72
2022/04/08 07:19:59;;;;;;;14.80;6.90;;;;;;;5.84;79.09;99843.13;5069345;28;20077;-72
2022/04/08 07:22:25;;;;;;;11.45;7.07;;;;;;;5.90;79.31;99834.84;5076092;28;20020;-72
2022/04/08 07:24:53;;;;;;;11.10;7.40;;;;;;;6.00;79.25;99836.03;5069322;28;20020;-72
2022/04/08 07:27:21;;;;;;;9.65;7.38;;;;;;;5.99;77.89;99825.56;5072477;28;20024;-72
2022/04/08 07:29:49;;;;;;;9.38;6.82;;;;;;;5.96;77.92;99821.31;5071360;28;20028;-72
2022/04/08 07:32:21;;;;;;;15.52;7.00;;;;;;;6.06;77.70;99832.16;5069030;28;20083;-72
2022/04/08 07:34:48;;;;;;;10.93;6.45;;;;;;;6.10;77.69;99829.25;5072128;28;20031;-71
2022/04/08 07:37:14;;;;;;;13.02;7.32;;;;;;;6.12;77.52;99831.81;5070948;28;20047;-71
2022/04/08 07:39:41;;;;;;;9.90;6.07;;;;;;;6.09;76.05;99819.66;5073668;28;20479;-71
2022/04/08 07:42:07;;;;;;;11.98;6.95;;;;;;;6.13;77.12;99833.50;5061599;28;20083;-72
2022/04/08 07:44:32;;;;;;;10.38;6.70;;;;;;;6.16;77.03;99827.19;5075577;28;20032;-71
2022/04/08 07:46:58;;;;;;;12.75;7.13;;;;;;;6.25;77.19;99830.09;5083264;28;20036;-71
2022/04/08 07:49:23;;;;;;;13.63;6.70;;;;;;;6.33;76.66;99827.00;5078408;28;20025;-72
2022/04/08 07:51:49;;;;;;;12.57;7.25;;;;;;;6.37;74.49;99831.13;5070797;28;20031;-71
2022/04/08 07:54:15;;;;;;;11.20;6.88;;;;;;;6.31;76.51;99818.31;5071542;28;20376;-73
2022/04/08 07:56:40;;;;;;;11.00;7.60;;;;;;;6.37;76.92;99826.69;5071445;28;20028;-72
2022/04/08 07:59:05;;;;;;;10.23;7.05;;;;;;;6.43;76.15;99822.81;5071838;28;20037;-71
2022/04/08 08:01:33;;;;;;;9.48;6.38;;;;;;;6.46;75.30;99817.34;5058269;28;20066;-71
2022/04/08 08:03:58;;;;;;;12.27;6.60;;;;;;;6.46;75.66;99813.88;5085024;28;20032;-72
2022/04/08 08:06:24;;;;;;;11.88;6.50;;;;;;;6.45;74.83;99802.47;5075946;28;20027;-71
2022/04/08 08:08:50;;;;;;;13.57;6.95;;;;;;;6.52;74.54;99816.13;5053566;28;20035;-71
2022/04/08 08:11:18;;;;;;;12.20;6.43;;;;;;;6.51;74.49;99817.06;5052846;28;20052;-72
2022/04/08 08:13:43;;;;;;;11.68;6.20;;;;;;;6.54;74.07;99811.59;5063918;28;20506;-72
2022/04/08 08:16:09;;;;;;;8.65;5.75;;;;;;;6.51;73.25;99815.28;5083295;28;20042;-71
2022/04/08 08:18:39;;;;;;;11.88;6.88;;;;;;;6.51;73.41;99817.91;5070296;28;20072;-72
2022/04/08 08:21:05;;;;;;;12.50;6.70;;;;;;;6.48;73.48;99810.19;5090135;28;20110;-71
2022/04/08 08:23:30;;;;;;;9.25;7.00;;;;;;;6.57;73.04;99821.97;5091993;28;20055;-72
2022/04/08 08:25:56;;;;;;;11.55;6.28;;;;;;;6.45;72.45;99796.34;5091800;28;20456;-72
2022/04/08 08:28:24;;;;;;;8.60;6.00;;;;;;;6.61;73.17;99804.97;5090441;28;20016;-71
2022/04/08 08:30:50;;;;;;;9.95;6.15;;;;;;;6.71;72.98;99813.19;5068416;28;20036;-72
2022/04/08 08:33:15;;;;;;;9.38;5.78;;;;;;;6.71;70.25;99803.47;5090340;28;20028;-71
2022/04/08 08:35:42;;;;;;;10.02;5.50;;;;;;;6.72;70.54;99805.13;5089999;28;20114;-72
2022/04/08 08:38:08;;;;;;;10.60;5.95;;;;;;;6.79;71.97;99795.03;5087157;28;20115;-72
2022/04/08 08:40:34;;;;;;;13.18;6.15;;;;;;;6.88;72.11;99793.56;5071569;28;20029;-72
2022/04/08 08:43:01;;;;;;;8.10;5.70;;;;;;;6.91;70.90;99786.31;5071304;28;20024;-72
2022/04/08 08:45:29;;;;;;;13.60;5.80;;;;;;;6.99;71.49;99784.00;5076052;28;20032;-71
2022/04/08 08:47:59;;;;;;;10.73;5.63;;;;;;;7.14;70.66;99782.16;5075222;28;20020;-72
2022/04/08 08:50:27;;;;;;;7.50;4.80;;;;;;;7.18;68.78;99777.53;5070794;28;20104;-72
2022/04/08 08:52:55;;;;;;;12.48;6.07;;;;;;;7.18;68.15;99774.88;5070849;28;20035;-71
2022/04/08 08:55:23;;;;;;;12.65;5.57;;;;;;;7.17;68.30;99773.16;5067915;28;20115;-73
2022/04/08 08:57:52;;;;;;;15.40;5.70;;;;;;;7.18;68.06;99770.44;5070043;28;20031;-72
2022/04/08 09:00:19;;;;;;;10.77;5.15;;;;;;;7.22;67.23;99761.34;5071315;28;20112;-73
2022/04/08 09:02:49;;;;;;;7.68;5.07;;;;;;;7.28;67.92;99760.09;5069777;28;20021;-73
2022/04/08 09:05:19;;;;;;;7.50;5.32;;;;;;;7.33;67.24;99759.78;5071847;28;20031;-73
2022/04/08 09:07:58;;;;;;;10.07;5.50;;;;;;;7.42;67.22;99754.72;5079945;28;20060;-73
2022/04/08 09:10:35;;;;;;;14.30;5.22;;;;;;;7.44;66.47;99751.94;5084813;28;20020;-73
2022/04/08 09:13:02;;;;;;;8.90;4.70;;;;;;;7.43;64.97;99743.16;5070918;28;20028;-73
2022/04/08 09:15:33;;;;;;;11.73;5.30;;;;;;;7.44;64.84;99763.41;5083067;28;20032;-73
2022/04/08 09:18:13;;;;;;;9.07;4.82;;;;;;;7.53;65.14;99763.72;5070575;28;20479;-73
2022/04/08 09:20:44;;;;;;;10.15;5.10;;;;;;;7.34;65.16;99756.19;5069404;28;20036;-70
2022/04/08 09:23:12;;;;;;;8.50;4.88;;;;;;;7.42;65.47;99759.16;5070814;28;20025;-70
2022/04/08 09:25:40;;;;;;;10.02;5.85;;;;;;;7.46;65.79;99765.94;5071007;28;20029;-70
2022/04/08 09:28:11;;;;;;;12.55;5.22;;;;;;;7.47;65.46;99763.19;5083691;28;20057;-70
2022/04/08 09:30:41;;;;;;;8.95;5.63;;;;;;;7.49;65.52;99755.97;5073476;28;20028;-70
2022/04/08 09:33:14;;;;;;;14.32;5.32;;;;;;;7.56;65.69;99759.09;5083211;28;20017;-70
2022/04/08 09:35:41;;;;;;;33.58;6.60;;;;;;;7.50;64.30;99756.84;5070621;28;20105;-70
2022/04/08 09:38:07;;;;;;;19.00;6.10;;;;;;;7.52;66.13;99752.28;5070213;28;20391;-70
2022/04/08 09:40:37;;;;;;;8.13;4.80;;;;;;;7.56;66.02;99745.84;5070732;28;20036;-70
2022/04/08 09:43:04;;;;;;;9.52;4.95;;;;;;;7.73;65.72;99752.59;5069808;28;20093;-70
2022/04/08 09:45:30;;;;;;;11.43;5.05;;;;;;;7.65;63.59;99747.88;5070739;28;20426;-70
2022/04/08 09:48:00;;;;;;;14.00;4.82;;;;;;;7.75;64.64;99750.72;5051914;28;20044;-71
2022/04/08 09:50:26;;;;;;;;;;;;;;;7.91;64.88;99761.94;5071181;28;20395;-70
2022/04/08 09:52:53;;;;;;;9.88;4.55;;;;;;;7.81;63.06;99757.38;5070003;28;19912;-70
2022/04/08 09:55:19;;;;;;;6.72;4.57;;;;;;;7.77;64.00;99755.91;5084184;28;20031;-70
2022/04/08 09:57:50;;;;;;;10.05;4.35;;;;;;;7.73;63.10;99745.53;5079219;28;20032;-71
2022/04/08 10:00:20;;;;;;;13.43;4.82;;;;;;;7.78;63.49;99750.50;5084782;28;20044;-70
2022/04/08 10:02:49;;;;;;;10.18;4.40;;;;;;;7.75;62.74;99740.13;5075563;28;20052;-71
2022/04/08 10:05:15;;;;;;;15.40;4.70;;;;;;;7.66;63.40;99741.59;5068896;28;20090;-71
2022/04/08 10:07:43;;;;;;;9.80;5.30;;;;;;;7.73;64.09;99744.66;5070473;28;20497;-71
2022/04/08 10:10:17;;;;;;;22.45;5.57;;;;;;;7.80;63.95;99734.53;5075957;28;20008;-76
2022/04/08 10:13:01;;;;;;;13.50;5.70;;;;;;;7.77;63.85;99750.63;5085012;28;20565;-71
2022/04/08 10:15:34;;;;;;;12.23;5.70;;;;;;;7.78;62.98;99752.31;5075108;28;20031;-70
2022/04/08 10:18:03;;;;;;;19.88;6.03;;;;;;;7.83;63.80;99751.03;5073774;28;20039;-72
2022/04/08 10:20:29;;;;;;;257.33;25.52;;;;;;;7.89;62.77;99747.13;5082064;28;20032;-66
2022/04/08 10:23:10;;;;;;;14.73;5.10;;;;;;;7.94;63.10;99748.50;5075823;28;20032;-67
2022/04/08 10:25:37;;;;;;;9.82;4.57;;;;;;;7.93;62.66;99746.78;5072272;28;20016;-68
2022/04/08 10:28:03;;;;;;;13.52;4.72;;;;;;;7.88;62.95;99727.75;5073774;28;20028;-68
2022/04/08 10:30:29;;;;;;;8.18;4.25;;;;;;;8.01;64.61;99742.78;5055924;28;20460;-68
2022/04/08 10:33:06;;;;;;;11.98;4.85;;;;;;;8.02;62.09;99737.34;5080990;28;20024;-69
2022/04/08 10:35:31;;;;;;;10.20;4.20;;;;;;;7.95;61.53;99728.16;5093793;28;20028;-68
2022/04/08 10:38:08;;;;;;;11.30;4.45;;;;;;;7.90;61.74;99728.47;5093856;28;20032;-68
2022/04/08 10:40:35;;;;;;;11.43;5.22;;;;;;;7.88;62.10;99726.88;5094260;28;20020;-68
2022/04/08 10:43:08;;;;;;;15.23;5.43;;;;;;;7.88;62.80;99725.09;5076759;28;20108;-68
2022/04/08 10:45:38;;;;;;;9.32;4.70;;;;;;;7.88;62.56;99727.75;5078850;28;20028;-68
2022/04/08 10:48:09;;;;;;;10.82;4.78;;;;;;;7.95;61.69;99733.44;5082252;28;20020;-68
2022/04/08 10:50:35;;;;;;;9.00;4.20;;;;;;;7.91;61.88;99727.53;5073690;28;20123;-68
2022/04/08 10:53:18;;;;;;;10.55;3.90;;;;;;;7.91;62.23;99730.19;5073072;28;20032;-68
2022/04/08 10:55:54;;;;;;;10.90;4.15;;;;;;;8.01;61.82;99732.19;5071706;28;20031;-68
2022/04/08 10:58:42;;;;;;;6.63;4.13;;;;;;;8.02;61.29;99726.75;5073434;28;20480;-67
2022/04/08 11:01:18;;;;;;;8.50;4.65;;;;;;;8.15;62.47;99737.34;5075483;28;20044;-68
2022/04/08 11:03:47;;;;;;;12.43;4.50;;;;;;;8.12;61.26;99734.91;5091496;28;20035;-68
2022/04/08 11:06:14;;;;;;;8.40;4.05;;;;;;;8.09;61.29;99727.16;5092945;28;20527;-68
2022/04/08 11:08:39;;;;;;;9.43;4.40;;;;;;;8.08;61.60;99714.88;5086124;28;20485;-68
2022/04/08 11:11:05;;;;;;;12.55;4.43;;;;;;;8.13;62.34;99708.31;5075297;28;20032;-68
2022/04/08 11:13:31;;;;;;;12.32;4.20;;;;;;;8.14;61.04;99711.81;5071867;28;20036;-68
2022/04/08 11:15:57;;;;;;;8.57;3.95;;;;;;;8.13;60.15;99707.47;5071233;28;20029;-68
2022/04/08 11:18:27;;;;;;;8.82;3.88;;;;;;;8.13;61.10;99700.38;5073099;28;20036;-68
2022/04/08 11:20:53;;;;;;;9.70;4.40;;;;;;;8.25;61.48;99706.59;5102896;28;20506;-68
2022/04/08 11:23:29;;;;;;;12.35;4.90;;;;;;;8.28;61.00;99701.06;5072797;28;20039;-68
2022/04/08 11:25:55;;;;;;;11.65;4.60;;;;;;;8.31;60.91;99703.50;5072692;28;20056;-67
2022/04/08 11:28:22;;;;;;;8.52;4.28;;;;;;;8.26;61.09;99691.53;5072971;28;20048;-67
2022/04/08 11:30:55;;;;;;;8.07;4.18;;;;;;;8.21;61.80;99681.28;5091595;28;20127;-68
2022/04/08 11:33:20;;;;;;;8.25;4.35;;;;;;;8.24;61.49;99680.22;5090454;28;20033;-68
2022/04/08 11:35:47;;;;;;;7.30;3.70;;;;;;;8.35;61.62;99681.16;5071026;28;20364;-68